Time;durP1;ratioP1;P1;durP2;ratioP2;P2;SDS_P1;SDS_P2;PMS_P1;PMS_P2;Temp;Humidity;BMP_temperature;BMP_pressure;BME280_temperature;BME280_humidity;BME280_pressure;Samples;Min_cycle;Max_cycle;Signal;HPM_P1;HPM_P2
2021/12/12 00:01:52;;;;;;;50.90;29.23;;;-0.10;58.80;;;;;;6278846;28;20299;-54
2021/12/12 00:04:56;;;;;;;52.70;31.30;;;-0.30;58.90;;;;;;6266607;28;20245;-55
2021/12/12 00:08:01;;;;;;;53.67;30.47;;;-0.10;58.50;;;;;;6278738;28;20245;-56
2021/12/12 00:11:08;;;;;;;53.50;29.67;;;-0.10;58.00;;;;;;6275598;28;20664;-55
2021/12/12 00:14:16;;;;;;;53.70;30.53;;;-0.20;58.80;;;;;;6278600;28;20628;-55
2021/12/12 00:17:20;;;;;;;51.50;30.93;;;-0.10;58.10;;;;;;6273661;28;20364;-54
2021/12/12 00:20:25;;;;;;;56.30;31.10;;;-0.10;59.00;;;;;;6279792;28;20411;-54
2021/12/12 00:23:29;;;;;;;52.67;30.97;;;-0.20;58.90;;;;;;6264196;28;20319;-54
2021/12/12 00:26:32;;;;;;;62.17;31.30;;;-0.10;58.10;;;;;;6270167;28;20325;-56
2021/12/12 00:29:37;;;;;;;54.37;31.20;;;-0.30;58.60;;;;;;6270097;28;20888;-54
2021/12/12 00:32:40;;;;;;;58.37;31.30;;;-0.40;58.50;;;;;;6272491;28;20313;-54
2021/12/12 00:35:43;;;;;;;51.10;29.63;;;-0.40;58.70;;;;;;6263838;28;20891;-55
2021/12/12 00:38:52;;;;;;;53.67;31.63;;;-0.10;59.20;;;;;;6270283;28;20800;-56
2021/12/12 00:41:59;;;;;;;51.13;30.07;;;-0.20;59.10;;;;;;6269518;28;20669;-55
2021/12/12 00:45:11;;;;;;;49.37;29.63;;;-0.30;59.30;;;;;;6271204;28;20240;-57
2021/12/12 00:48:13;;;;;;;51.40;30.40;;;-0.10;59.40;;;;;;6261959;28;20317;-54
2021/12/12 00:51:19;;;;;;;55.50;30.77;;;-0.40;58.50;;;;;;6267070;28;20724;-56
2021/12/12 00:54:30;;;;;;;55.10;34.93;;;-0.20;58.70;;;;;;6284718;28;20729;-54
2021/12/12 00:57:33;;;;;;;51.80;30.77;;;-0.20;58.10;;;;;;6264758;28;20321;-56
2021/12/12 01:00:47;;;;;;;56.90;31.47;;;0.20;58.50;;;;;;6269276;28;20268;-55
2021/12/12 01:03:53;;;;;;;51.77;31.40;;;-0.20;59.00;;;;;;6258335;28;20599;-57
2021/12/12 01:06:58;;;;;;;51.20;31.40;;;-0.10;59.10;;;;;;6273515;28;20277;-54
2021/12/12 01:10:09;;;;;;;51.67;30.40;;;0.10;59.20;;;;;;6274243;28;20236;-56
2021/12/12 01:13:13;;;;;;;53.50;30.43;;;0.20;59.50;;;;;;6273871;28;20309;-57
2021/12/12 01:16:20;;;;;;;45.60;30.27;;;0.00;58.90;;;;;;6268253;28;20627;-54
2021/12/12 01:19:27;;;;;;;51.30;31.03;;;0.10;58.60;;;;;;6274848;28;20241;-56
2021/12/12 01:22:36;;;;;;;45.27;30.00;;;0.00;59.30;;;;;;6273817;28;20222;-56
2021/12/12 01:25:44;;;;;;;49.97;30.13;;;-0.20;58.20;;;;;;6257493;28;20321;-55
2021/12/12 01:28:50;;;;;;;47.40;29.27;;;-0.10;58.50;;;;;;6276490;28;20326;-55
2021/12/12 01:31:56;;;;;;;45.90;29.30;;;0.00;58.50;;;;;;6271129;28;20230;-56
2021/12/12 01:35:00;;;;;;;45.07;28.97;;;0.00;57.70;;;;;;6275692;28;20819;-56
2021/12/12 01:41:30;;;;;;;42.00;28.93;;;0.00;56.40;;;;;;6253771;28;20321;-55
2021/12/12 01:44:38;;;;;;;43.37;28.47;;;-0.10;57.10;;;;;;6274105;28;20242;-56
2021/12/12 01:47:47;;;;;;;45.97;29.20;;;0.20;56.40;;;;;;6269607;28;20326;-55
2021/12/12 01:50:53;;;;;;;43.03;28.27;;;-0.10;56.60;;;;;;6274523;28;20371;-56
2021/12/12 01:54:00;;;;;;;42.23;27.93;;;0.20;56.30;;;;;;6276264;28;20336;-56
2021/12/12 01:57:04;;;;;;;44.53;30.10;;;-0.20;56.70;;;;;;6263491;28;20238;-55
2021/12/12 02:00:12;;;;;;;40.90;28.17;;;-0.10;56.00;;;;;;6262810;28;20230;-55
2021/12/12 02:03:19;;;;;;;47.30;28.73;;;0.00;56.10;;;;;;6276241;28;20234;-56
2021/12/12 02:06:23;;;;;;;47.07;27.87;;;-0.10;56.30;;;;;;6268645;28;20237;-55
2021/12/12 02:09:26;;;;;;;42.30;28.03;;;-0.10;56.30;;;;;;6274483;28;20314;-54
2021/12/12 02:12:31;;;;;;;40.73;28.13;;;-0.10;57.10;;;;;;6276112;28;20283;-56
2021/12/12 02:15:36;;;;;;;43.33;28.70;;;0.10;57.00;;;;;;6274622;28;20383;-55
2021/12/12 02:18:42;;;;;;;41.50;27.47;;;-0.20;55.70;;;;;;6276877;28;20501;-55
2021/12/12 02:22:00;;;;;;;42.50;28.40;;;0.10;56.40;;;;;;6268980;28;20298;-56
2021/12/12 02:35:20;;;;;;;44.73;28.27;;;0.00;56.60;;;;;;6260727;28;20584;-55
2021/12/12 02:38:26;;;;;;;42.13;28.13;;;-0.20;56.50;;;;;;6267602;28;20238;-56
2021/12/12 02:41:31;;;;;;;40.53;27.60;;;-0.40;56.50;;;;;;6270513;28;20412;-56
2021/12/12 02:44:35;;;;;;;39.40;27.00;;;0.00;57.00;;;;;;6275389;28;20869;-56
2021/12/12 02:47:39;;;;;;;36.43;26.73;;;-0.30;56.80;;;;;;6261764;28;20625;-56
2021/12/12 02:50:45;;;;;;;41.37;28.20;;;-0.20;56.00;;;;;;6275091;28;20243;-56
2021/12/12 02:53:52;;;;;;;41.50;27.37;;;-0.20;56.90;;;;;;6273896;28;20226;-55
2021/12/12 02:56:57;;;;;;;35.17;25.47;;;-0.40;56.40;;;;;;6263796;28;20241;-56
2021/12/12 03:00:00;;;;;;;39.43;26.37;;;-0.40;56.70;;;;;;6268593;28;20418;-55
2021/12/12 03:03:03;;;;;;;38.63;25.93;;;-0.40;55.80;;;;;;6270810;28;20829;-54
2021/12/12 03:06:08;;;;;;;36.70;25.83;;;-0.20;56.70;;;;;;6268134;28;20650;-54
2021/12/12 03:09:14;;;;;;;42.07;27.30;;;-0.30;55.70;;;;;;6269904;28;20614;-55
2021/12/12 03:12:23;;;;;;;42.23;27.40;;;-0.50;56.50;;;;;;6274114;28;20271;-56
2021/12/12 03:15:30;;;;;;;36.97;26.70;;;-0.20;57.30;;;;;;6273992;28;20378;-55
2021/12/12 03:18:39;;;;;;;41.73;28.20;;;-0.50;57.10;;;;;;6265058;28;20257;-56
2021/12/12 03:21:45;;;;;;;41.37;27.30;;;-0.20;56.40;;;;;;6265771;28;20316;-57
2021/12/12 03:24:48;;;;;;;38.47;26.77;;;-0.20;57.30;;;;;;6252043;28;20665;-56
2021/12/12 03:27:53;;;;;;;38.23;26.77;;;-0.60;56.60;;;;;;6265492;28;20863;-55
2021/12/12 03:31:00;;;;;;;39.33;27.50;;;-0.60;57.20;;;;;;6269049;28;20325;-56
2021/12/12 03:34:06;;;;;;;38.27;26.13;;;-0.30;57.70;;;;;;6265819;28;20348;-54
2021/12/12 03:37:11;;;;;;;34.87;25.87;;;-0.30;57.60;;;;;;6270896;28;20261;-54
2021/12/12 03:40:18;;;;;;;42.07;27.23;;;-0.10;57.30;;;;;;6272273;28;20499;-55
2021/12/12 03:43:22;;;;;;;39.20;26.67;;;-0.20;57.30;;;;;;6270661;28;20237;-56
2021/12/12 03:46:26;;;;;;;36.50;25.73;;;-0.20;56.30;;;;;;6273496;28;20290;-55
2021/12/12 03:49:29;;;;;;;38.87;26.27;;;-0.10;57.40;;;;;;6279103;28;20244;-54
2021/12/12 03:52:32;;;;;;;41.40;26.67;;;-0.50;56.60;;;;;;6268524;28;20237;-56
2021/12/12 03:55:36;;;;;;;33.67;25.17;;;-0.20;56.90;;;;;;6270855;28;20234;-55
2021/12/12 03:58:41;;;;;;;38.60;25.77;;;-0.30;56.70;;;;;;6255085;28;20253;-54
2021/12/12 04:01:48;;;;;;;35.43;24.60;;;0.00;57.00;;;;;;6275410;28;20262;-55
2021/12/12 04:04:51;;;;;;;35.90;24.23;;;-0.30;57.20;;;;;;6277983;28;20234;-55
2021/12/12 04:07:54;;;;;;;42.77;25.87;;;-0.20;56.00;;;;;;6274459;28;20663;-56
2021/12/12 04:10:57;;;;;;;43.50;28.20;;;-0.20;55.70;;;;;;6264511;28;20237;-55
2021/12/12 04:14:03;;;;;;;34.67;26.17;;;-0.20;55.90;;;;;;6262906;28;20237;-55
2021/12/12 04:17:11;;;;;;;34.93;25.67;;;-0.10;56.70;;;;;;6269083;28;20392;-56
2021/12/12 04:20:19;;;;;;;35.03;24.97;;;-0.20;56.40;;;;;;6270052;28;20747;-54
2021/12/12 04:23:25;;;;;;;33.53;24.70;;;0.00;56.70;;;;;;6269694;28;20234;-56
2021/12/12 04:26:31;;;;;;;37.10;25.60;;;-0.10;56.50;;;;;;6271215;28;21862;-56
2021/12/12 04:29:39;;;;;;;38.50;26.00;;;-0.20;56.30;;;;;;6275681;28;20268;-56
2021/12/12 04:32:44;;;;;;;33.97;24.93;;;-0.20;56.50;;;;;;6242542;28;20734;-56
2021/12/12 04:35:46;;;;;;;34.43;24.83;;;-0.30;55.60;;;;;;6252060;28;20607;-55
2021/12/12 04:38:49;;;;;;;37.13;24.53;;;0.10;55.90;;;;;;6255077;28;20249;-55
2021/12/12 04:42:19;;;;;;;31.80;25.73;;;-0.30;55.90;;;;;;6252846;28;20239;-55
2021/12/12 04:46:03;;;;;;;36.17;24.77;;;0.00;55.60;;;;;;6256721;28;20335;-56
2021/12/12 04:52:34;;;;;;;37.50;24.83;;;0.00;56.80;;;;;;6254285;28;20706;-56
2021/12/12 04:55:50;;;;;;;39.97;25.20;;;0.20;57.40;;;;;;6259241;28;20322;-55
2021/12/12 04:59:00;;;;;;;35.73;24.60;;;0.10;57.50;;;;;;6258607;28;20987;-56
2021/12/12 05:02:09;;;;;;;34.10;25.20;;;0.40;56.80;;;;;;6259848;28;20669;-54
2021/12/12 05:05:16;;;;;;;40.50;26.03;;;0.60;57.90;;;;;;6260889;28;20271;-55
2021/12/12 05:08:27;;;;;;;37.77;24.03;;;0.60;58.00;;;;;;6253090;28;20355;-55
2021/12/12 05:11:38;;;;;;;36.83;24.60;;;0.40;57.20;;;;;;6257192;28;20887;-54
2021/12/12 05:14:49;;;;;;;37.97;24.27;;;0.50;56.80;;;;;;6237280;28;20265;-56
2021/12/12 05:17:57;;;;;;;40.83;24.87;;;0.60;55.80;;;;;;6256753;28;20241;-56
2021/12/12 05:21:04;;;;;;;33.37;23.37;;;0.90;55.20;;;;;;6256546;28;20237;-55
2021/12/12 05:24:11;;;;;;;33.53;23.90;;;0.80;54.90;;;;;;6255800;28;20327;-56
2021/12/12 05:27:16;;;;;;;34.23;24.60;;;0.80;55.40;;;;;;6251378;28;20238;-54
2021/12/12 05:30:23;;;;;;;35.53;24.73;;;0.60;55.10;;;;;;6259257;28;20472;-55
2021/12/12 05:33:29;;;;;;;34.67;23.53;;;0.70;55.20;;;;;;6261702;28;20316;-56
2021/12/12 05:36:34;;;;;;;33.33;24.63;;;0.70;55.00;;;;;;6257096;28;20242;-54
2021/12/12 05:39:37;;;;;;;33.77;23.87;;;0.90;55.20;;;;;;6259749;28;20924;-56
2021/12/12 05:42:40;;;;;;;34.67;25.47;;;1.00;55.40;;;;;;6258373;28;20872;-54
2021/12/12 05:45:45;;;;;;;33.50;24.67;;;0.70;54.80;;;;;;6259289;28;20277;-56
2021/12/12 05:48:51;;;;;;;37.10;24.97;;;0.60;54.70;;;;;;6251940;28;20243;-54
2021/12/12 05:51:54;;;;;;;36.87;25.13;;;0.90;55.60;;;;;;6258687;28;20246;-56
2021/12/12 05:54:57;;;;;;;41.33;25.77;;;0.60;54.30;;;;;;6258587;28;20230;-55
2021/12/12 05:58:02;;;;;;;33.53;24.93;;;0.50;54.00;;;;;;6247963;28;20231;-56
2021/12/12 06:01:09;;;;;;;31.97;23.93;;;0.80;54.80;;;;;;6254357;28;20722;-56
2021/12/12 06:04:14;;;;;;;31.70;25.37;;;0.80;55.00;;;;;;6254947;28;20279;-56
2021/12/12 06:07:19;;;;;;;34.50;25.00;;;0.70;55.00;;;;;;6257458;28;20369;-54
2021/12/12 06:10:23;;;;;;;34.40;24.80;;;0.70;54.90;;;;;;6258589;28;20295;-55
2021/12/12 06:13:26;;;;;;;40.10;25.80;;;0.60;54.70;;;;;;6260332;28;20772;-56
2021/12/12 06:16:31;;;;;;;35.03;26.47;;;0.50;54.80;;;;;;6254049;28;20230;-56
2021/12/12 06:19:37;;;;;;;37.47;25.93;;;0.50;54.50;;;;;;6259799;28;20246;-54
2021/12/12 06:22:40;;;;;;;33.23;25.27;;;0.30;54.60;;;;;;6259404;28;20748;-56
2021/12/12 06:25:45;;;;;;;33.83;24.43;;;0.40;54.60;;;;;;6257376;28;20799;-56
2021/12/12 06:28:49;;;;;;;36.87;25.73;;;0.10;55.30;;;;;;6258815;28;20380;-56
2021/12/12 06:31:53;;;;;;;38.47;26.67;;;0.40;55.50;;;;;;6258519;28;20242;-56
2021/12/12 06:34:58;;;;;;;34.47;25.60;;;0.30;55.00;;;;;;6255444;28;20233;-55
2021/12/12 06:38:02;;;;;;;39.17;26.30;;;0.30;54.80;;;;;;6255002;28;20249;-56
2021/12/12 06:41:07;;;;;;;34.90;24.83;;;0.20;53.90;;;;;;6255136;28;20256;-56
2021/12/12 06:44:13;;;;;;;34.03;25.10;;;0.00;53.30;;;;;;6251518;28;20309;-55
2021/12/12 06:47:18;;;;;;;30.67;24.20;;;0.10;54.00;;;;;;6243345;28;20239;-55
2021/12/12 06:50:23;;;;;;;35.27;25.23;;;0.10;53.50;;;;;;6256331;28;20238;-55
2021/12/12 06:53:28;;;;;;;34.43;25.97;;;0.10;53.90;;;;;;6248647;28;20262;-56
2021/12/12 06:56:31;;;;;;;36.40;25.30;;;0.10;53.50;;;;;;6256404;28;20248;-54
2021/12/12 06:59:37;;;;;;;30.73;24.50;;;0.10;53.80;;;;;;6258237;28;20234;-56
2021/12/12 07:02:42;;;;;;;34.83;25.17;;;0.50;53.40;;;;;;6248732;28;20286;-56
2021/12/12 07:05:47;;;;;;;35.03;24.80;;;0.40;52.40;;;;;;6252121;28;20245;-55
2021/12/12 07:08:50;;;;;;;39.57;26.03;;;0.30;51.80;;;;;;6248248;28;20853;-56
2021/12/12 07:11:54;;;;;;;34.77;25.60;;;0.20;52.00;;;;;;6257538;28;20321;-56
2021/12/12 07:14:57;;;;;;;37.10;25.17;;;0.30;52.60;;;;;;6250282;28;20853;-55
2021/12/12 07:18:05;;;;;;;34.33;25.07;;;0.30;52.80;;;;;;6260668;28;20240;-56
2021/12/12 07:21:12;;;;;;;34.70;26.23;;;0.40;53.70;;;;;;6264570;28;20318;-55
2021/12/12 07:24:17;;;;;;;32.90;24.27;;;0.40;53.30;;;;;;6261954;28;20320;-56
2021/12/12 07:27:20;;;;;;;38.57;25.93;;;0.20;53.50;;;;;;6258180;28;20238;-56
2021/12/12 07:30:22;;;;;;;32.57;24.50;;;0.30;53.10;;;;;;6250737;28;20528;-55
2021/12/12 07:33:26;;;;;;;36.80;26.40;;;0.20;52.80;;;;;;6251646;28;20293;-55
2021/12/12 07:36:33;;;;;;;39.10;27.97;;;0.20;53.70;;;;;;6258653;28;20238;-55
2021/12/12 07:39:39;;;;;;;46.90;29.93;;;0.10;53.10;;;;;;6254658;28;20242;-56
2021/12/12 07:42:45;;;;;;;43.60;27.30;;;0.20;53.30;;;;;;6263253;28;20241;-54
2021/12/12 07:45:48;;;;;;;43.10;27.47;;;0.10;54.10;;;;;;6263063;28;20713;-54
2021/12/12 07:48:53;;;;;;;39.57;26.80;;;0.30;54.50;;;;;;6259389;28;20260;-56
2021/12/12 07:51:58;;;;;;;43.30;27.50;;;0.00;54.50;;;;;;6252447;28;20411;-55
2021/12/12 07:55:01;;;;;;;49.47;29.23;;;0.10;54.40;;;;;;6252783;28;20293;-56
2021/12/12 07:58:06;;;;;;;44.87;28.53;;;0.20;54.30;;;;;;6255635;28;20321;-56
2021/12/12 08:01:09;;;;;;;44.23;28.57;;;0.20;54.90;;;;;;6258349;28;20316;-56
2021/12/12 08:04:13;;;;;;;36.10;26.83;;;0.30;54.50;;;;;;6257834;28;20323;-55
2021/12/12 08:07:20;;;;;;;44.37;28.37;;;0.20;54.40;;;;;;6258795;28;20467;-55
2021/12/12 08:10:23;;;;;;;43.60;27.47;;;0.20;54.30;;;;;;6261851;28;20732;-54
2021/12/12 08:13:26;;;;;;;43.07;29.27;;;0.50;54.50;;;;;;6259222;28;20234;-53
2021/12/12 08:16:29;;;;;;;41.53;27.97;;;0.20;54.50;;;;;;6262115;28;20634;-55
2021/12/12 08:19:32;;;;;;;48.53;30.87;;;0.20;54.90;;;;;;6257011;28;20388;-56
2021/12/12 08:22:37;;;;;;;40.90;29.17;;;0.60;54.80;;;;;;6258204;28;20312;-55
2021/12/12 08:25:42;;;;;;;43.87;29.03;;;0.30;54.40;;;;;;6259623;28;20321;-55
2021/12/12 08:28:46;;;;;;;40.63;28.70;;;0.60;55.00;;;;;;6258001;28;20317;-55
2021/12/12 08:31:50;;;;;;;41.77;28.20;;;0.30;55.20;;;;;;6259827;28;20242;-55
2021/12/12 08:34:53;;;;;;;38.67;27.93;;;0.70;55.10;;;;;;6260883;28;20360;-56
2021/12/12 08:37:59;;;;;;;44.80;30.30;;;0.60;54.80;;;;;;6254752;28;20629;-55
2021/12/12 08:41:03;;;;;;;44.33;27.87;;;0.60;56.00;;;;;;6262891;28;20558;-56
2021/12/12 08:44:08;;;;;;;40.43;27.73;;;0.60;55.40;;;;;;6247322;28;20868;-52
2021/12/12 08:47:12;;;;;;;38.07;26.37;;;1.00;55.50;;;;;;6261360;28;20383;-56
2021/12/12 08:50:18;;;;;;;41.93;27.03;;;0.80;54.40;;;;;;6259200;28;20325;-54
2021/12/12 08:53:24;;;;;;;42.37;27.43;;;1.00;54.40;;;;;;6253196;28;20234;-55
2021/12/12 08:56:41;;;;;;;39.73;28.10;;;1.20;53.70;;;;;;6261645;28;20246;-55
2021/12/12 08:59:46;;;;;;;43.10;28.50;;;1.30;53.30;;;;;;6260540;28;20304;-56
2021/12/12 09:02:49;;;;;;;38.07;26.97;;;1.20;54.10;;;;;;6257113;28;20233;-57
2021/12/12 09:05:53;;;;;;;38.97;25.50;;;1.20;53.60;;;;;;6256614;28;20230;-55
2021/12/12 09:09:08;;;;;;;36.50;26.60;;;1.30;53.60;;;;;;6258099;28;20291;-54
2021/12/12 09:12:16;;;;;;;34.97;24.50;;;1.40;54.00;;;;;;6250091;28;20243;-56
2021/12/12 09:15:26;;;;;;;32.63;24.77;;;1.30;52.50;;;;;;6256851;28;20252;-54
2021/12/12 09:18:34;;;;;;;38.13;26.43;;;1.30;53.40;;;;;;6257888;28;20279;-56
2021/12/12 09:21:49;;;;;;;38.07;26.63;;;1.60;53.60;;;;;;6256671;28;20264;-55
2021/12/12 09:25:00;;;;;;;33.40;24.97;;;1.60;53.90;;;;;;6250451;28;20295;-55
2021/12/12 09:28:08;;;;;;;40.37;26.63;;;1.40;53.80;;;;;;6254673;28;20230;-55
2021/12/12 09:31:15;;;;;;;36.83;25.47;;;1.50;54.70;;;;;;6247548;28;20275;-54
2021/12/12 09:34:25;;;;;;;37.30;26.43;;;1.70;55.00;;;;;;6255802;28;20234;-54
2021/12/12 09:37:55;;;;;;;40.27;25.60;;;1.70;54.90;;;;;;6250694;28;20325;-55
2021/12/12 09:41:23;;;;;;;33.20;24.80;;;1.70;53.90;;;;;;6251852;28;20597;-55
2021/12/12 09:44:42;;;;;;;37.47;26.43;;;2.00;53.30;;;;;;6262876;28;20361;-55
2021/12/12 09:48:28;;;;;;;42.70;25.90;;;2.00;52.50;;;;;;6253922;28;20791;-55
2021/12/12 09:51:42;;;;;;;36.27;24.57;;;1.90;52.50;;;;;;6250937;28;20526;-56
2021/12/12 09:54:52;;;;;;;37.17;24.47;;;2.10;53.10;;;;;;6250797;28;20233;-56
2021/12/12 09:58:00;;;;;;;37.53;25.50;;;1.90;52.80;;;;;;6253581;28;20283;-57
2021/12/12 10:01:06;;;;;;;31.30;23.13;;;1.90;52.80;;;;;;6252055;28;20232;-55
2021/12/12 10:04:24;;;;;;;39.60;26.03;;;2.00;52.90;;;;;;6253699;28;20226;-55
2021/12/12 10:07:39;;;;;;;33.97;23.77;;;2.10;52.90;;;;;;6253895;28;20246;-55
2021/12/12 10:10:48;;;;;;;36.17;24.80;;;2.10;51.20;;;;;;6249822;28;20722;-56
2021/12/12 10:14:01;;;;;;;35.87;24.63;;;2.20;51.70;;;;;;6254634;28;20279;-56
2021/12/12 10:17:10;;;;;;;35.47;24.33;;;2.20;51.50;;;;;;6250550;28;20312;-55
2021/12/12 10:20:20;;;;;;;36.03;23.87;;;2.30;51.20;;;;;;6253141;28;20246;-56
2021/12/12 10:23:35;;;;;;;34.43;24.27;;;2.60;51.60;;;;;;6242691;28;20406;-55
2021/12/12 10:26:42;;;;;;;34.50;25.37;;;2.60;51.70;;;;;;6251191;28;20244;-58
2021/12/12 10:30:00;;;;;;;34.63;23.87;;;2.40;52.00;;;;;;6256123;28;20286;-56
2021/12/12 10:33:14;;;;;;;37.63;26.03;;;2.40;52.80;;;;;;6252408;28;20237;-55
2021/12/12 10:36:20;;;;;;;36.67;25.00;;;2.70;52.10;;;;;;6250336;28;20399;-56
2021/12/12 10:39:29;;;;;;;34.93;25.17;;;2.40;52.10;;;;;;6249593;28;20238;-58
2021/12/12 10:42:40;;;;;;;36.93;25.07;;;2.60;51.70;;;;;;6252136;28;20248;-60
2021/12/12 10:45:50;;;;;;;37.37;24.83;;;2.40;50.90;;;;;;6245627;28;20734;-57
2021/12/12 10:49:02;;;;;;;32.03;24.83;;;2.70;52.20;;;;;;6249945;28;20623;-56
2021/12/12 10:52:11;;;;;;;36.27;25.33;;;2.60;51.60;;;;;;6257843;28;20268;-58
2021/12/12 10:55:21;;;;;;;33.60;23.50;;;2.50;50.90;;;;;;6242944;28;20845;-56
2021/12/12 10:58:33;;;;;;;37.73;25.07;;;2.50;52.50;;;;;;6258649;28;20309;-54
2021/12/12 11:01:43;;;;;;;36.97;23.83;;;2.70;52.60;;;;;;6260229;28;20242;-54
2021/12/12 11:04:48;;;;;;;35.83;24.73;;;2.50;52.70;;;;;;6251945;28;20322;-55
2021/12/12 11:07:57;;;;;;;35.77;24.30;;;2.50;53.00;;;;;;6255469;28;20232;-55
2021/12/12 11:11:02;;;;;;;36.60;24.83;;;2.50;52.70;;;;;;6256807;28;20644;-57
2021/12/12 11:14:17;;;;;;;39.47;26.53;;;2.70;52.80;;;;;;6264798;28;20229;-56
2021/12/12 11:17:27;;;;;;;36.23;25.87;;;2.50;53.00;;;;;;6259675;28;20777;-56
2021/12/12 11:20:35;;;;;;;38.83;25.43;;;2.70;53.90;;;;;;6253880;28;20245;-56
2021/12/12 11:23:47;;;;;;;33.90;25.53;;;2.70;53.70;;;;;;6258791;28;20237;-55
2021/12/12 11:26:57;;;;;;;40.93;26.27;;;2.50;54.00;;;;;;6251844;28;20348;-57
2021/12/12 11:30:05;;;;;;;38.10;24.93;;;2.60;53.90;;;;;;6261174;28;20630;-56
2021/12/12 11:33:12;;;;;;;38.43;25.77;;;2.70;53.90;;;;;;6256674;28;20291;-56
2021/12/12 11:36:20;;;;;;;37.50;24.50;;;2.70;54.00;;;;;;6250348;28;20615;-56
2021/12/12 11:39:30;;;;;;;40.63;26.67;;;2.70;54.40;;;;;;6259615;28;20347;-57
2021/12/12 11:42:38;;;;;;;34.03;24.93;;;2.50;53.90;;;;;;6259403;28;20341;-56
2021/12/12 11:45:43;;;;;;;39.07;25.60;;;2.50;54.60;;;;;;6242970;28;20340;-55
2021/12/12 11:48:59;;;;;;;35.57;25.00;;;2.60;54.70;;;;;;6256055;28;20230;-57
2021/12/12 11:52:05;;;;;;;34.97;25.20;;;2.20;54.00;;;;;;6259893;28;20291;-56
2021/12/12 11:55:13;;;;;;;36.73;25.43;;;2.70;54.40;;;;;;6260136;28;20587;-54
2021/12/12 11:58:25;;;;;;;43.17;26.87;;;2.60;55.20;;;;;;6252408;28;20253;-54
2021/12/12 12:01:34;;;;;;;35.70;24.83;;;2.70;54.40;;;;;;6256788;28;20792;-52
2021/12/12 12:05:00;;;;;;;36.40;24.50;;;2.80;55.50;;;;;;6253152;28;20910;-57
2021/12/12 12:08:13;;;;;;;34.63;24.90;;;2.60;56.00;;;;;;6257659;28;20256;-56
2021/12/12 12:11:33;;;;;;;37.40;24.63;;;2.60;56.40;;;;;;6249707;28;20284;-60
2021/12/12 12:14:45;;;;;;;38.57;24.70;;;2.90;56.70;;;;;;6256386;28;20551;-56
2021/12/12 12:17:58;;;;;;;33.50;22.67;;;2.90;56.80;;;;;;6257543;28;20237;-57
2021/12/12 12:21:10;;;;;;;34.53;23.57;;;3.10;56.80;;;;;;6259455;28;20755;-54
2021/12/12 12:24:20;;;;;;;33.30;24.03;;;3.10;55.90;;;;;;6260418;28;20246;-56
2021/12/12 12:27:32;;;;;;;33.57;23.17;;;2.80;56.00;;;;;;6250202;28;20253;-57
2021/12/12 12:31:31;;;;;;;38.23;24.43;;;2.90;55.50;;;;;;6248223;28;20246;-56
2021/12/12 12:35:41;;;;;;;34.73;24.03;;;3.00;54.80;;;;;;6254499;28;20358;-55
2021/12/12 12:39:21;;;;;;;34.23;23.90;;;3.30;53.60;;;;;;6250530;28;20376;-55
2021/12/12 12:43:06;;;;;;;33.23;22.63;;;3.50;53.60;;;;;;6253457;28;20237;-56
2021/12/12 12:46:46;;;;;;;31.93;22.17;;;3.30;52.00;;;;;;6245170;28;20519;-55
2021/12/12 12:53:59;;;;;;;29.73;20.93;;;3.40;52.70;;;;;;6274759;28;20574;-55
2021/12/12 12:57:21;;;;;;;31.57;20.90;;;3.60;51.20;;;;;;6247105;28;20233;-56
2021/12/12 13:00:28;;;;;;;29.33;21.97;;;3.70;51.40;;;;;;6244874;28;20239;-55
2021/12/12 13:03:40;;;;;;;28.37;19.87;;;3.40;51.00;;;;;;6254912;28;20595;-56
2021/12/12 13:07:19;;;;;;;26.23;19.90;;;3.40;51.60;;;;;;6255719;28;20260;-59
2021/12/12 13:10:26;;;;;;;29.87;20.70;;;3.20;50.80;;;;;;6249899;28;20291;-55
2021/12/12 13:13:32;;;;;;;30.37;20.97;;;3.10;52.80;;;;;;6254051;28;20237;-55
2021/12/12 13:16:47;;;;;;;29.27;20.70;;;3.10;52.80;;;;;;6252978;28;20237;-54
2021/12/12 13:20:08;;;;;;;25.63;20.07;;;3.40;51.90;;;;;;6252754;28;20372;-56
2021/12/12 13:23:24;;;;;;;28.50;20.83;;;3.50;52.70;;;;;;6255370;28;20506;-54
2021/12/12 13:26:39;;;;;;;31.23;21.47;;;3.20;51.50;;;;;;6254351;28;20648;-57
2021/12/12 13:30:04;;;;;;;28.30;20.60;;;3.20;52.50;;;;;;6250713;28;20329;-55
2021/12/12 13:33:21;;;;;;;26.90;20.30;;;3.60;51.40;;;;;;6252947;28;20671;-55
2021/12/12 13:36:33;;;;;;;27.20;20.07;;;3.40;51.80;;;;;;6252828;28;20642;-57
2021/12/12 13:39:51;;;;;;;28.53;19.43;;;3.30;52.40;;;;;;6246331;28;20258;-54
2021/12/12 13:43:05;;;;;;;27.80;20.83;;;3.30;52.50;;;;;;6233291;28;20241;-56
2021/12/12 13:46:15;;;;;;;29.37;21.53;;;3.20;52.20;;;;;;6252755;28;20287;-54
2021/12/12 13:49:24;;;;;;;26.93;20.37;;;3.30;54.40;;;;;;6242272;28;20226;-56
2021/12/12 13:52:37;;;;;;;28.67;19.47;;;3.10;53.90;;;;;;6258491;28;20300;-55
2021/12/12 13:55:47;;;;;;;25.57;20.13;;;3.40;54.40;;;;;;6245124;28;20814;-55
2021/12/12 13:59:00;;;;;;;28.13;19.37;;;3.40;54.60;;;;;;6251321;28;20309;-56
2021/12/12 14:02:06;;;;;;;27.70;19.57;;;3.40;54.10;;;;;;6238840;28;20230;-55
2021/12/12 14:05:15;;;;;;;28.87;19.60;;;3.50;54.50;;;;;;6240143;28;20235;-57
2021/12/12 14:08:23;;;;;;;25.07;19.60;;;3.40;54.40;;;;;;6238918;28;20258;-58
2021/12/12 14:11:30;;;;;;;25.93;18.67;;;3.30;54.70;;;;;;6239901;28;20245;-60
2021/12/12 14:14:42;;;;;;;26.10;19.50;;;3.40;53.90;;;;;;6224002;28;20246;-58
2021/12/12 14:17:48;;;;;;;26.47;18.93;;;3.20;55.30;;;;;;6235727;28;20726;-59
2021/12/12 14:20:55;;;;;;;25.57;18.80;;;3.40;54.70;;;;;;6240212;28;20378;-58
2021/12/12 14:23:59;;;;;;;23.77;18.67;;;3.00;55.50;;;;;;6241077;28;20419;-58
2021/12/12 14:27:06;;;;;;;26.50;18.83;;;3.40;55.90;;;;;;6241156;28;20290;-57
2021/12/12 14:30:13;;;;;;;22.67;18.10;;;3.30;55.20;;;;;;6231416;28;20227;-58
2021/12/12 14:33:18;;;;;;;25.30;19.03;;;3.40;56.20;;;;;;6209995;28;20239;-55
2021/12/12 14:36:25;;;;;;;24.30;18.17;;;3.40;57.40;;;;;;6231044;28;20316;-59
2021/12/12 14:39:31;;;;;;;23.23;19.90;;;3.10;57.90;;;;;;6233293;28;20873;-58
2021/12/12 14:42:34;;;;;;;23.63;18.30;;;3.10;58.30;;;;;;6230047;28;20441;-59
2021/12/12 14:45:42;;;;;;;24.43;19.00;;;3.10;59.20;;;;;;6231192;28;20389;-57
2021/12/12 14:48:50;;;;;;;22.63;18.77;;;3.40;60.30;;;;;;6237578;28;20278;-58
2021/12/12 14:52:19;;;;;;;22.03;18.47;;;3.30;60.80;;;;;;6227887;28;20235;-58
2021/12/12 14:55:26;;;;;;;26.20;19.77;;;3.10;60.50;;;;;;6236487;28;20284;-59
2021/12/12 14:58:31;;;;;;;25.03;19.47;;;3.20;60.90;;;;;;6237056;28;20373;-59
2021/12/12 15:01:39;;;;;;;29.10;19.97;;;3.20;61.70;;;;;;6225270;28;20231;-55
2021/12/12 15:04:52;;;;;;;27.90;19.90;;;3.10;61.40;;;;;;6235390;28;20238;-57
2021/12/12 15:07:58;;;;;;;26.33;20.10;;;3.00;62.00;;;;;;6231009;28;20735;-58
2021/12/12 15:11:06;;;;;;;30.37;20.73;;;3.20;62.30;;;;;;6241878;28;20254;-59
2021/12/12 15:14:14;;;;;;;26.07;19.90;;;3.10;62.10;;;;;;6248834;28;20324;-63
2021/12/12 15:17:22;;;;;;;27.17;20.30;;;2.90;62.10;;;;;;6237116;28;20234;-58
2021/12/12 15:20:30;;;;;;;32.60;19.33;;;3.10;62.10;;;;;;6229509;28;20373;-59
2021/12/12 15:23:35;;;;;;;26.13;18.67;;;3.00;62.60;;;;;;6238717;28;20325;-59
2021/12/12 15:26:41;;;;;;;26.20;19.87;;;3.00;63.00;;;;;;6236350;28;20231;-59
2021/12/12 15:29:46;;;;;;;25.83;19.60;;;3.00;62.20;;;;;;6232414;28;20333;-59
2021/12/12 15:32:53;;;;;;;28.60;20.20;;;3.10;62.90;;;;;;6233550;28;20365;-57
2021/12/12 15:35:58;;;;;;;25.97;18.10;;;3.30;62.70;;;;;;6234182;28;20735;-59
2021/12/12 15:39:03;;;;;;;26.73;18.70;;;3.30;62.80;;;;;;6236137;28;20290;-58
2021/12/12 15:42:11;;;;;;;24.37;19.20;;;3.00;63.40;;;;;;6237703;28;20353;-58
2021/12/12 15:45:23;;;;;;;26.40;18.77;;;2.90;63.40;;;;;;6232054;28;20257;-59
2021/12/12 15:48:35;;;;;;;30.90;18.70;;;3.30;63.00;;;;;;6244074;28;20298;-57
2021/12/12 15:51:38;;;;;;;24.83;19.67;;;2.90;63.10;;;;;;6231319;28;20226;-56
2021/12/12 15:54:42;;;;;;;27.37;18.87;;;3.20;63.20;;;;;;6223443;28;20235;-58
2021/12/12 15:57:47;;;;;;;23.73;19.10;;;3.20;63.30;;;;;;6241560;28;20326;-56
2021/12/12 16:00:52;;;;;;;29.10;19.83;;;3.30;63.60;;;;;;6241246;28;20246;-58
2021/12/12 16:03:59;;;;;;;26.03;19.63;;;2.90;63.70;;;;;;6242577;28;20376;-58
2021/12/12 16:07:08;;;;;;;27.07;19.93;;;3.10;64.00;;;;;;6225517;28;20391;-59
2021/12/12 16:10:18;;;;;;;25.93;19.13;;;3.10;63.60;;;;;;6210129;28;22567;-60
2021/12/12 16:13:25;;;;;;;29.80;19.03;;;3.30;64.50;;;;;;6194095;28;20248;-58
2021/12/12 16:16:31;;;;;;;26.80;19.57;;;3.10;63.70;;;;;;6207143;28;20257;-58
2021/12/12 16:19:40;;;;;;;29.07;20.10;;;3.30;64.30;;;;;;6205716;28;20391;-56
2021/12/12 16:22:48;;;;;;;30.43;21.10;;;3.40;64.10;;;;;;6204642;28;20830;-60
2021/12/12 16:25:53;;;;;;;31.87;23.23;;;3.20;64.30;;;;;;6209046;28;20716;-62
2021/12/12 16:28:59;;;;;;;29.07;21.40;;;3.10;63.60;;;;;;6202747;28;20243;-56